メインページ
METAR-TAF:

METAR-TAF

空港 :

クウェート国際空港

クウェート, クウェート

緯度: 29-13N, 経度: 047-59E, 海抜: 55m

現時点の気象観測

当レポートは30分前の01:00(UTC)に作成
の風 5kt
気温 7°C
湿度 70%
気圧 1024 hPa
視程10km以上
1,500メートル以下は雲なし、積乱雲なし

METAR: OKBK 210100Z 36005KT CAVOK 07/02 Q1024 NOSIG

時間: 04:30 (01:30 UTC)

予報

当レポートは2時間45分前の22:45(UTC)に作成
予報は21日の 00時(UTC)から 22日の 06時(UTC)まで有効
北/北西の風 10kt
視程: 7000m
21日の 00時(UTC)から 21日の 06時(UTC)まで一時的に
変向風 3kt

TAF: OKBK 202245Z 2100/2206 33010KT 7000 NSC TEMPO 2100/2106 VRB03KT

4,000以上の空港の気象観測と天気予報(METAR報とTAF報)

利用可能な観測所は地図上に黄色い丸と赤い丸で示す。

丸の上にカーソルを重ねると観測所名を参照できる。

次にクリックすると気象観測と天気予報を参照できる。

マップの切り替え:黒色「×」印の緑ボタンをクリックして拡大、「-」印の緑ボタンをクリックして縮小、緑色の三角印をクリックして隣りの地図に切り替え


METAR-TAF: